createdAt,value
2023-02-13T00:01:30.318Z,23.00
2023-02-13T00:02:30.429Z,21.38
2023-02-13T00:03:30.399Z,22.72
2023-02-13T00:04:30.397Z,21.99
2023-02-13T00:05:30.310Z,22.69
2023-02-13T00:06:30.364Z,22.11
2023-02-13T00:07:30.424Z,22.03
2023-02-13T00:09:30.395Z,22.21
2023-02-13T00:10:30.366Z,22.46
2023-02-13T00:11:30.365Z,22.34
2023-02-13T00:12:30.433Z,23.39
2023-02-13T00:13:30.410Z,23.37
2023-02-13T00:14:30.358Z,22.80
2023-02-13T00:16:30.355Z,22.62
2023-02-13T00:18:30.361Z,23.64
2023-02-13T00:19:30.446Z,22.41
2023-02-13T00:20:30.386Z,23.32
2023-02-13T00:21:30.408Z,22.18
2023-02-13T00:22:30.415Z,22.92
2023-02-13T00:24:30.398Z,23.50
2023-02-13T00:25:30.398Z,22.33
2023-02-13T00:26:30.430Z,22.84
2023-02-13T00:28:30.447Z,23.85
2023-02-13T00:29:30.412Z,24.20
2023-02-13T00:30:34.798Z,23.27
2023-02-13T00:31:31.570Z,24.22
2023-02-13T00:32:30.406Z,24.21
2023-02-13T00:33:30.470Z,22.28
2023-02-13T00:36:31.657Z,22.65
2023-02-13T00:37:30.400Z,22.82
2023-02-13T00:38:30.426Z,22.12
2023-02-13T00:39:30.488Z,22.34
2023-02-13T00:41:30.456Z,22.56
2023-02-13T00:46:30.515Z,23.64
2023-02-13T00:47:30.477Z,21.96
2023-02-13T00:48:30.539Z,23.35
2023-02-13T00:49:30.513Z,22.70
2023-02-13T00:51:31.593Z,23.37
2023-02-13T00:53:31.724Z,22.37
2023-02-13T00:54:30.483Z,23.15
2023-02-13T00:56:31.697Z,23.49
2023-02-13T00:59:30.445Z,23.86
2023-02-13T01:00:30.465Z,22.15
2023-02-13T01:01:30.492Z,22.90
2023-02-13T01:03:31.950Z,22.26
2023-02-13T01:05:30.482Z,23.16
2023-02-13T01:06:30.491Z,24.73
2023-02-13T01:07:35.182Z,22.19
2023-02-13T01:08:30.497Z,23.52
2023-02-13T01:10:30.492Z,23.59
2023-02-13T01:11:30.526Z,22.40
2023-02-13T01:12:30.496Z,23.55
2023-02-13T01:13:30.459Z,23.61
2023-02-13T01:14:30.498Z,23.26
2023-02-13T01:15:30.515Z,22.99
2023-02-13T01:16:30.538Z,22.73
2023-02-13T01:17:30.506Z,23.82
2023-02-13T01:18:30.513Z,22.88
2023-02-13T01:19:30.501Z,23.41
2023-02-13T01:20:30.492Z,23.30
2023-02-13T01:21:30.553Z,21.71
2023-02-13T01:22:30.485Z,24.81
2023-02-13T01:23:30.524Z,23.67
2023-02-13T01:24:30.522Z,24.08
2023-02-13T01:25:30.547Z,23.14
2023-02-13T01:26:30.560Z,23.08
2023-02-13T01:27:30.496Z,23.92
2023-02-13T01:29:30.502Z,22.68
2023-02-13T01:30:30.538Z,23.17
2023-02-13T01:33:30.566Z,25.02
2023-02-13T01:34:30.583Z,23.96
2023-02-13T01:35:30.559Z,22.89
2023-02-13T01:36:30.522Z,24.14
2023-02-13T01:37:30.562Z,23.05
2023-02-13T01:38:30.530Z,24.06
2023-02-13T01:40:30.543Z,24.31
2023-02-13T01:41:30.538Z,22.70
2023-02-13T01:43:30.575Z,21.54
2023-02-13T01:44:35.576Z,22.01
2023-02-13T01:45:30.584Z,23.04
2023-02-13T01:47:30.592Z,23.24
2023-02-13T01:48:32.376Z,23.01
2023-02-13T01:51:30.614Z,22.90
2023-02-13T01:52:30.551Z,22.52
2023-02-13T01:55:30.564Z,22.62
2023-02-13T01:56:30.612Z,23.46
2023-02-13T01:57:30.640Z,21.66
2023-02-13T01:58:30.655Z,22.00
2023-02-13T01:59:30.656Z,21.92
2023-02-13T02:00:30.577Z,20.74
2023-02-13T02:01:30.628Z,21.33
2023-02-13T02:02:30.664Z,22.89
2023-02-13T02:03:30.626Z,21.69
2023-02-13T02:05:30.655Z,21.34
2023-02-13T02:06:30.634Z,22.63
2023-02-13T02:07:30.580Z,23.02
2023-02-13T02:08:30.602Z,21.32
2023-02-13T02:09:30.626Z,19.94
2023-02-13T02:11:30.622Z,21.13
2023-02-13T02:12:30.666Z,21.33
2023-02-13T02:13:30.626Z,21.66
2023-02-13T02:14:30.684Z,22.18
2023-02-13T02:16:30.604Z,20.41
2023-02-13T02:18:30.974Z,22.51
2023-02-13T02:19:30.644Z,22.03
2023-02-13T02:20:30.680Z,23.46
2023-02-13T02:22:30.651Z,21.46
2023-02-13T02:23:30.651Z,23.97
2023-02-13T02:25:30.710Z,22.11
2023-02-13T02:26:30.682Z,22.62
2023-02-13T02:27:30.699Z,22.60
2023-02-13T02:28:30.771Z,22.36
2023-02-13T02:29:30.695Z,22.89
2023-02-13T02:32:30.693Z,23.56
2023-02-13T02:33:30.714Z,21.80
2023-02-13T02:34:30.691Z,21.95
2023-02-13T02:35:30.729Z,21.89
2023-02-13T02:36:30.883Z,21.45
2023-02-13T02:37:30.727Z,22.75
2023-02-13T02:38:30.705Z,20.87
2023-02-13T02:39:30.705Z,21.76
2023-02-13T02:40:30.748Z,21.81
2023-02-13T02:42:30.713Z,21.44
2023-02-13T02:43:30.747Z,22.01
2023-02-13T02:44:30.717Z,21.21
2023-02-13T02:45:30.757Z,21.55
2023-02-13T02:46:30.765Z,21.82
2023-02-13T02:47:30.682Z,22.29
2023-02-13T02:48:30.761Z,21.55
2023-02-13T02:49:30.702Z,21.77
2023-02-13T02:50:30.693Z,21.27
2023-02-13T02:51:30.728Z,22.02
2023-02-13T02:52:30.706Z,21.75
2023-02-13T02:53:30.761Z,20.89
2023-02-13T02:54:30.760Z,22.50
2023-02-13T02:58:30.795Z,22.66
2023-02-13T02:59:30.714Z,21.46
2023-02-13T03:00:30.792Z,22.16
2023-02-13T03:01:30.765Z,23.26
2023-02-13T03:02:30.752Z,22.14
2023-02-13T03:04:30.881Z,21.29
2023-02-13T03:05:30.749Z,20.98
2023-02-13T03:07:30.764Z,21.10
2023-02-13T03:08:30.772Z,22.73
2023-02-13T03:10:30.776Z,23.51
2023-02-13T03:11:30.823Z,22.39
2023-02-13T03:12:30.768Z,21.81
2023-02-13T03:13:30.773Z,23.54
2023-02-13T03:14:30.783Z,22.82
2023-02-13T03:15:30.785Z,22.98
2023-02-13T03:16:30.856Z,22.24
2023-02-13T03:17:30.816Z,22.98
2023-02-13T03:18:30.780Z,24.93
2023-02-13T03:19:30.795Z,22.71
2023-02-13T03:20:30.801Z,24.75
2023-02-13T03:21:30.799Z,23.06
2023-02-13T03:22:30.798Z,22.66
2023-02-13T03:23:30.774Z,23.12
2023-02-13T03:24:30.840Z,24.01
2023-02-13T03:25:30.808Z,25.17
2023-02-13T03:26:30.769Z,24.23
2023-02-13T03:27:30.806Z,23.74
2023-02-13T03:28:30.808Z,22.99
2023-02-13T03:29:30.862Z,23.53
2023-02-13T03:30:30.824Z,24.50
2023-02-13T03:32:31.724Z,25.60
2023-02-13T03:33:30.859Z,24.77
2023-02-13T03:34:30.858Z,24.60
2023-02-13T03:35:30.829Z,23.25
2023-02-13T03:37:30.838Z,25.01
2023-02-13T03:38:30.844Z,24.04
2023-02-13T03:40:30.844Z,24.14
2023-02-13T03:42:30.834Z,25.13
2023-02-13T03:43:30.847Z,24.48
2023-02-13T03:44:30.893Z,23.84
2023-02-13T03:45:30.876Z,24.87
2023-02-13T03:46:30.829Z,25.75
2023-02-13T03:47:30.856Z,24.86
2023-02-13T03:48:30.872Z,24.44
2023-02-13T03:50:30.874Z,25.79
2023-02-13T03:51:30.840Z,25.68
2023-02-13T03:52:30.869Z,24.43
2023-02-13T03:53:30.837Z,24.99
2023-02-13T03:54:30.910Z,25.10
2023-02-13T03:55:30.879Z,25.75
2023-02-13T03:56:30.883Z,25.59
2023-02-13T03:57:30.881Z,23.95
2023-02-13T03:58:30.902Z,26.44
2023-02-13T04:00:30.896Z,27.26
2023-02-13T04:01:30.932Z,26.37
2023-02-13T04:02:30.955Z,26.79
2023-02-13T04:03:30.903Z,25.09
2023-02-13T04:04:30.893Z,26.41
2023-02-13T04:05:30.908Z,25.66
2023-02-13T04:07:30.960Z,24.52
2023-02-13T04:08:30.902Z,26.50
2023-02-13T04:09:32.075Z,24.77
2023-02-13T04:10:30.921Z,25.55
2023-02-13T04:11:30.927Z,26.52
2023-02-13T04:12:30.972Z,26.51
2023-02-13T04:13:30.924Z,26.39
2023-02-13T04:14:30.927Z,26.71
2023-02-13T04:15:30.934Z,26.07
2023-02-13T04:16:30.968Z,24.89
2023-02-13T04:17:30.971Z,24.36
2023-02-13T04:18:30.939Z,26.86
2023-02-13T04:19:30.956Z,26.00
2023-02-13T04:20:30.965Z,25.12
2023-02-13T04:21:30.942Z,25.93
2023-02-13T04:22:30.975Z,25.97
2023-02-13T04:25:30.916Z,25.59
2023-02-13T04:26:30.965Z,25.31
2023-02-13T04:27:30.990Z,25.28
2023-02-13T04:28:31.004Z,25.99
2023-02-13T04:29:30.942Z,24.93
2023-02-13T04:32:30.970Z,25.60
2023-02-13T04:34:30.934Z,24.97
2023-02-13T04:35:30.998Z,26.66
2023-02-13T04:36:30.981Z,25.77
2023-02-13T04:38:30.955Z,26.06
2023-02-13T04:39:30.957Z,27.12
2023-02-13T04:42:30.956Z,25.40
2023-02-13T04:43:31.016Z,27.07
2023-02-13T04:44:30.998Z,25.07
2023-02-13T04:47:30.968Z,26.63
2023-02-13T04:49:31.012Z,27.67
2023-02-13T04:50:31.045Z,25.94
2023-02-13T04:51:31.014Z,25.85
2023-02-13T04:52:31.026Z,25.48
2023-02-13T04:53:31.025Z,28.61
2023-02-13T04:54:31.044Z,28.58
2023-02-13T04:55:31.058Z,29.59
2023-02-13T04:56:31.022Z,31.79
2023-02-13T04:57:31.025Z,32.23
2023-02-13T04:58:31.027Z,33.69
2023-02-13T04:59:31.001Z,30.62
2023-02-13T05:00:31.083Z,30.77
2023-02-13T05:01:31.092Z,31.82
2023-02-13T05:02:31.057Z,31.03
2023-02-13T05:03:31.013Z,30.16
2023-02-13T05:04:31.077Z,30.50
2023-02-13T05:05:31.078Z,31.36
2023-02-13T05:06:31.071Z,30.21
2023-02-13T05:07:31.048Z,34.06
2023-02-13T05:08:31.066Z,32.13
2023-02-13T05:09:31.060Z,34.05
2023-02-13T05:10:31.095Z,34.69
2023-02-13T05:11:31.053Z,33.40
2023-02-13T05:12:31.038Z,32.27
2023-02-13T05:13:31.090Z,31.71
2023-02-13T05:14:31.071Z,36.26
2023-02-13T05:15:31.141Z,34.55
2023-02-13T05:16:31.104Z,32.86
2023-02-13T05:17:31.032Z,34.16
2023-02-13T05:18:31.116Z,33.13
2023-02-13T05:19:31.084Z,30.24
2023-02-13T05:20:31.045Z,27.84
2023-02-13T05:21:31.085Z,29.92
2023-02-13T05:22:31.088Z,28.79
2023-02-13T05:23:32.880Z,30.21
2023-02-13T05:24:31.059Z,30.89
2023-02-13T05:25:31.089Z,29.29
2023-02-13T05:26:31.104Z,28.63
2023-02-13T05:27:31.120Z,28.70
2023-02-13T05:28:31.172Z,29.51
2023-02-13T05:29:31.120Z,31.00
2023-02-13T05:30:31.069Z,29.89
2023-02-13T05:31:31.185Z,28.72
2023-02-13T05:32:31.076Z,29.18
2023-02-13T05:33:31.141Z,27.97
2023-02-13T05:34:31.120Z,29.69
2023-02-13T05:36:31.155Z,27.73
2023-02-13T05:37:31.125Z,29.56
2023-02-13T05:38:31.087Z,31.16
2023-02-13T05:39:31.122Z,30.59
2023-02-13T05:41:31.174Z,30.64
2023-02-13T05:42:31.112Z,31.28
2023-02-13T05:43:31.110Z,29.49
2023-02-13T05:44:31.212Z,30.47
2023-02-13T05:45:31.155Z,28.36
2023-02-13T05:46:31.142Z,30.13
2023-02-13T05:47:31.169Z,31.81
2023-02-13T05:48:31.136Z,31.81
2023-02-13T05:50:31.132Z,34.66
2023-02-13T05:51:31.161Z,32.86
2023-02-13T05:52:31.155Z,35.17
2023-02-13T05:53:31.172Z,33.50
2023-02-13T05:54:31.218Z,34.23
2023-02-13T05:55:31.131Z,35.45
2023-02-13T05:56:31.148Z,34.50
2023-02-13T05:58:31.190Z,33.94
2023-02-13T05:59:31.150Z,35.45
2023-02-13T06:00:33.275Z,35.71
2023-02-13T06:01:31.165Z,33.78
2023-02-13T06:04:31.189Z,34.79
2023-02-13T06:05:31.153Z,35.04
2023-02-13T06:06:31.208Z,36.87
2023-02-13T06:07:31.184Z,36.46
2023-02-13T06:08:31.160Z,34.41
2023-02-13T06:09:31.206Z,34.07
2023-02-13T06:10:31.211Z,34.56
2023-02-13T06:11:31.223Z,34.46
2023-02-13T06:12:31.228Z,33.34
2023-02-13T06:13:31.208Z,33.08
2023-02-13T06:14:31.176Z,36.43
2023-02-13T06:15:31.175Z,36.85
2023-02-13T06:17:31.220Z,33.78
2023-02-13T06:18:31.235Z,34.12
2023-02-13T06:19:31.219Z,34.00
2023-02-13T06:20:31.229Z,33.99
2023-02-13T06:21:31.230Z,33.88
2023-02-13T06:22:31.194Z,33.92
2023-02-13T06:23:31.226Z,34.05
2023-02-13T06:24:31.249Z,35.69
2023-02-13T06:25:31.240Z,36.34
2023-02-13T06:26:31.203Z,36.73
2023-02-13T06:27:31.202Z,34.25
2023-02-13T06:28:31.330Z,35.47
2023-02-13T06:29:31.248Z,35.96
2023-02-13T06:30:31.323Z,35.53
2023-02-13T06:31:31.236Z,34.40
2023-02-13T06:32:31.219Z,34.63
2023-02-13T06:33:31.258Z,35.57
2023-02-13T06:34:31.234Z,34.96
2023-02-13T06:35:31.347Z,35.57
2023-02-13T06:36:31.230Z,33.07
2023-02-13T06:37:33.728Z,34.07
2023-02-13T06:38:31.232Z,35.89
2023-02-13T06:39:31.275Z,34.48
2023-02-13T06:40:31.311Z,35.72
2023-02-13T06:41:31.265Z,34.94
2023-02-13T06:42:31.280Z,36.05
2023-02-13T06:43:31.255Z,33.37
2023-02-13T06:44:31.241Z,32.09
2023-02-13T06:45:31.308Z,33.63
2023-02-13T06:46:31.306Z,34.20
2023-02-13T06:47:31.264Z,34.10
2023-02-13T06:48:31.258Z,35.21
2023-02-13T06:49:31.254Z,32.93
2023-02-13T06:50:31.336Z,34.95
2023-02-13T06:51:31.306Z,33.40
2023-02-13T06:52:31.334Z,36.51
2023-02-13T06:53:31.328Z,34.60
2023-02-13T06:54:46.277Z,33.20
2023-02-13T06:55:31.344Z,34.50
2023-02-13T06:56:31.307Z,33.45
2023-02-13T06:57:31.318Z,35.83
2023-02-13T06:59:31.356Z,32.49
2023-02-13T07:00:31.376Z,33.16
2023-02-13T07:01:31.285Z,33.58
2023-02-13T07:02:31.381Z,31.01
2023-02-13T07:03:31.376Z,34.87
2023-02-13T07:04:31.338Z,34.49
2023-02-13T07:05:31.481Z,35.28
2023-02-13T07:06:32.973Z,32.96
2023-02-13T07:07:31.338Z,34.87
2023-02-13T07:09:31.305Z,36.01
2023-02-13T07:10:31.348Z,36.26
2023-02-13T07:11:31.556Z,35.02
2023-02-13T07:12:31.350Z,33.38
2023-02-13T07:13:31.372Z,35.00
2023-02-13T07:14:34.314Z,33.73
2023-02-13T07:15:31.363Z,34.15
2023-02-13T07:16:31.404Z,36.58
2023-02-13T07:18:31.393Z,36.58
2023-02-13T07:19:31.346Z,35.33
2023-02-13T07:20:31.346Z,35.40
2023-02-13T07:21:31.368Z,35.65
2023-02-13T07:23:31.349Z,35.46
2023-02-13T07:24:31.411Z,35.12
2023-02-13T07:25:31.398Z,37.30
2023-02-13T07:26:31.427Z,37.38
2023-02-13T07:27:31.368Z,38.92
2023-02-13T07:28:31.522Z,39.07
2023-02-13T07:29:31.389Z,36.44
2023-02-13T07:30:32.873Z,40.39
2023-02-13T07:31:31.507Z,39.41
2023-02-13T07:32:31.424Z,37.53
2023-02-13T07:33:31.406Z,35.29
2023-02-13T07:34:31.375Z,36.74
2023-02-13T07:35:31.415Z,35.83
2023-02-13T07:36:31.416Z,36.89
2023-02-13T07:37:31.488Z,37.71
2023-02-13T07:38:31.474Z,35.93
2023-02-13T07:39:31.430Z,36.86
2023-02-13T07:40:31.425Z,39.07
2023-02-13T07:41:31.492Z,36.27
2023-02-13T07:42:31.405Z,37.02
2023-02-13T07:43:31.430Z,38.35
2023-02-13T07:44:31.433Z,35.50
2023-02-13T07:45:31.422Z,38.02
2023-02-13T07:46:31.515Z,35.87
2023-02-13T07:47:31.917Z,34.44
2023-02-13T07:48:31.441Z,34.85
2023-02-13T07:49:31.472Z,37.16
2023-02-13T07:50:31.426Z,37.29
2023-02-13T07:51:34.730Z,37.78
2023-02-13T07:52:31.451Z,36.89
2023-02-13T07:54:31.515Z,37.00
2023-02-13T07:55:31.459Z,35.22
2023-02-13T07:56:31.421Z,36.64
2023-02-13T07:58:31.434Z,37.01
2023-02-13T07:59:31.534Z,36.48
2023-02-13T08:01:31.531Z,38.39
2023-02-13T08:02:31.431Z,39.48
2023-02-13T08:03:31.468Z,37.86
2023-02-13T08:04:31.444Z,36.81
2023-02-13T08:05:31.449Z,37.38
2023-02-13T08:06:31.490Z,35.97
2023-02-13T08:07:31.488Z,35.88
2023-02-13T08:08:31.463Z,36.96
2023-02-13T08:09:31.495Z,37.21
2023-02-13T08:10:31.505Z,37.72
2023-02-13T08:11:31.506Z,38.35
2023-02-13T08:12:31.510Z,37.88
2023-02-13T08:13:31.514Z,37.00
2023-02-13T08:14:31.494Z,38.06
2023-02-13T08:15:31.473Z,38.30
2023-02-13T08:16:31.556Z,38.01
2023-02-13T08:17:31.544Z,38.14
2023-02-13T08:18:31.517Z,40.82
2023-02-13T08:19:31.531Z,39.62
2023-02-13T08:20:31.533Z,39.39
2023-02-13T08:21:31.519Z,37.59
2023-02-13T08:22:31.529Z,39.82
2023-02-13T08:23:31.650Z,38.70
2023-02-13T08:24:31.489Z,38.09
2023-02-13T08:25:31.526Z,39.94
2023-02-13T08:26:31.484Z,38.57
2023-02-13T08:27:31.517Z,40.50
2023-02-13T08:28:35.140Z,39.22
2023-02-13T08:29:31.547Z,39.63
2023-02-13T08:30:31.586Z,39.81
2023-02-13T08:31:31.760Z,40.46
2023-02-13T08:32:39.314Z,38.54
2023-02-13T08:33:31.561Z,39.27
2023-02-13T08:34:31.542Z,39.90
2023-02-13T08:35:31.519Z,39.91
2023-02-13T08:36:31.523Z,39.14
2023-02-13T08:37:31.516Z,40.09
2023-02-13T08:38:31.565Z,41.05
2023-02-13T08:39:31.575Z,41.25
2023-02-13T08:40:31.566Z,40.39
2023-02-13T08:41:31.561Z,37.78
2023-02-13T08:42:31.535Z,38.75
2023-02-13T08:43:31.596Z,39.99
2023-02-13T08:44:31.580Z,38.71
2023-02-13T08:45:31.602Z,38.48
2023-02-13T08:46:31.643Z,38.31
2023-02-13T08:47:31.591Z,38.71
2023-02-13T08:48:31.590Z,38.49
2023-02-13T08:49:31.586Z,39.15
2023-02-13T08:50:31.543Z,36.38
2023-02-13T08:51:31.595Z,41.30
2023-02-13T08:52:31.590Z,40.50
2023-02-13T08:53:31.592Z,37.72
2023-02-13T08:54:31.566Z,40.25
2023-02-13T08:55:31.597Z,38.61
2023-02-13T08:56:31.600Z,38.73
2023-02-13T08:57:31.568Z,37.38
2023-02-13T08:58:31.606Z,40.18
2023-02-13T08:59:31.569Z,39.49
2023-02-13T09:00:31.623Z,38.93
2023-02-13T09:01:31.630Z,38.80
2023-02-13T09:02:31.638Z,40.89
2023-02-13T09:03:31.630Z,40.99
2023-02-13T09:04:31.676Z,40.32
2023-02-13T09:05:35.471Z,39.69
2023-02-13T09:06:31.609Z,41.45
2023-02-13T09:07:31.644Z,39.70
2023-02-13T09:09:31.628Z,39.66
2023-02-13T09:10:31.648Z,40.16
2023-02-13T09:11:31.633Z,38.69
2023-02-13T09:12:31.643Z,39.50
2023-02-13T09:13:31.647Z,38.84
2023-02-13T09:14:31.645Z,38.01
2023-02-13T09:15:31.669Z,39.44
2023-02-13T09:16:31.716Z,40.89
2023-02-13T09:17:31.646Z,42.23
2023-02-13T09:18:31.654Z,40.42
2023-02-13T09:19:31.658Z,40.48
2023-02-13T09:20:31.631Z,40.10
2023-02-13T09:21:31.695Z,39.54
2023-02-13T09:22:31.684Z,37.67
2023-02-13T09:23:31.656Z,38.21
2023-02-13T09:24:31.715Z,37.57
2023-02-13T09:25:31.678Z,38.97
2023-02-13T09:26:31.646Z,41.44
2023-02-13T09:27:31.679Z,37.26
2023-02-13T09:28:31.753Z,37.68
2023-02-13T09:29:31.786Z,39.34
2023-02-13T09:30:31.708Z,38.18
2023-02-13T09:31:31.828Z,38.69
2023-02-13T09:32:31.697Z,40.39
2023-02-13T09:33:31.657Z,42.34
2023-02-13T09:34:31.664Z,38.08
2023-02-13T09:35:31.654Z,37.46
2023-02-13T09:36:31.684Z,37.76
2023-02-13T09:37:31.752Z,37.38
2023-02-13T09:38:31.666Z,38.28
2023-02-13T09:39:31.723Z,39.21
2023-02-13T09:40:31.715Z,39.45
2023-02-13T09:41:31.784Z,39.37
2023-02-13T09:42:35.772Z,40.29
2023-02-13T09:43:31.679Z,39.21
2023-02-13T09:44:31.723Z,40.47
2023-02-13T09:45:31.770Z,39.63
2023-02-13T09:46:31.767Z,40.99
2023-02-13T09:47:31.694Z,38.14
2023-02-13T09:48:31.709Z,39.46
2023-02-13T09:49:31.709Z,39.79
2023-02-13T09:50:31.759Z,40.10
2023-02-13T09:51:31.750Z,38.68
2023-02-13T09:52:31.742Z,40.19
2023-02-13T09:53:31.753Z,40.88
2023-02-13T09:54:31.747Z,38.80
2023-02-13T09:55:31.758Z,37.64
2023-02-13T09:56:31.721Z,40.09
2023-02-13T09:57:31.758Z,40.87
2023-02-13T09:58:31.795Z,40.73
2023-02-13T09:59:31.728Z,39.29
2023-02-13T10:00:31.723Z,39.12
2023-02-13T10:01:31.781Z,38.79
2023-02-13T10:02:31.757Z,39.86
2023-02-13T10:03:31.772Z,39.80
2023-02-13T10:04:31.927Z,38.30
2023-02-13T10:05:31.752Z,37.14
2023-02-13T10:06:31.771Z,38.07
2023-02-13T10:07:31.743Z,38.09
2023-02-13T10:08:31.743Z,38.00
2023-02-13T10:09:31.790Z,37.86
2023-02-13T10:10:31.773Z,38.09
2023-02-13T10:11:31.793Z,40.14
2023-02-13T10:13:31.801Z,37.97
2023-02-13T10:14:32.870Z,38.20
2023-02-13T10:15:31.868Z,37.92
2023-02-13T10:16:31.817Z,37.45
2023-02-13T10:17:31.794Z,40.08
2023-02-13T10:18:31.776Z,37.07
2023-02-13T10:19:36.210Z,39.26
2023-02-13T10:20:31.814Z,40.62
2023-02-13T10:21:31.821Z,40.03
2023-02-13T10:22:31.784Z,41.19
2023-02-13T10:23:31.833Z,39.12
2023-02-13T10:25:31.826Z,39.61
2023-02-13T10:26:31.783Z,37.37
2023-02-13T10:27:31.843Z,38.58
2023-02-13T10:28:31.893Z,39.97
2023-02-13T10:29:31.795Z,39.98
2023-02-13T10:30:31.857Z,41.04
2023-02-13T10:31:35.039Z,41.16
2023-02-13T10:32:31.808Z,39.21
2023-02-13T10:33:33.160Z,39.46
2023-02-13T10:34:31.831Z,40.67
2023-02-13T10:35:31.845Z,39.41
2023-02-13T10:37:31.878Z,40.32
2023-02-13T10:38:31.859Z,40.39
2023-02-13T10:39:31.841Z,38.15
2023-02-13T10:40:31.818Z,40.64
2023-02-13T10:41:31.880Z,39.67
2023-02-13T10:42:31.834Z,39.25
2023-02-13T10:43:31.913Z,42.24
2023-02-13T10:44:31.886Z,40.08
2023-02-13T10:45:31.877Z,39.98
2023-02-13T10:46:32.002Z,39.36
2023-02-13T10:47:31.862Z,39.09
2023-02-13T10:48:31.847Z,41.07
2023-02-13T10:49:31.901Z,40.42
2023-02-13T10:50:31.907Z,42.39
2023-02-13T10:51:31.879Z,40.23
2023-02-13T10:52:31.880Z,39.11
2023-02-13T10:53:31.847Z,41.42
2023-02-13T10:54:31.873Z,37.31
2023-02-13T10:56:36.590Z,37.77
2023-02-13T10:57:31.855Z,39.66
2023-02-13T10:58:31.864Z,39.23
2023-02-13T10:59:31.914Z,40.56
2023-02-13T11:00:31.930Z,37.70
2023-02-13T11:01:32.056Z,37.21
2023-02-13T11:02:31.927Z,36.51
2023-02-13T11:03:31.924Z,36.85
2023-02-13T11:04:31.961Z,39.46
2023-02-13T11:05:31.880Z,40.31
2023-02-13T11:06:31.931Z,40.56
2023-02-13T11:09:31.936Z,35.94
2023-02-13T11:11:31.904Z,37.76
2023-02-13T11:12:31.932Z,39.41
2023-02-13T11:13:31.903Z,38.93
2023-02-13T11:14:31.927Z,39.75
2023-02-13T11:15:31.941Z,38.71
2023-02-13T11:16:33.123Z,38.88
2023-02-13T11:17:31.933Z,38.07
2023-02-13T11:18:31.941Z,38.48
2023-02-13T11:19:31.963Z,37.67
2023-02-13T11:20:32.085Z,39.50
2023-02-13T11:21:31.954Z,37.58
2023-02-13T11:22:31.977Z,36.02
2023-02-13T11:23:31.954Z,38.32
2023-02-13T11:24:31.981Z,38.04
2023-02-13T11:25:31.962Z,37.85
2023-02-13T11:26:31.938Z,38.14
2023-02-13T11:27:31.964Z,38.51
2023-02-13T11:28:31.983Z,42.10
2023-02-13T11:29:31.938Z,41.56
2023-02-13T11:30:31.952Z,40.21
2023-02-13T11:31:32.062Z,39.68
2023-02-13T11:33:36.941Z,39.86
2023-02-13T11:34:31.976Z,38.25
2023-02-13T11:35:31.977Z,37.74
2023-02-13T11:36:32.001Z,39.49
2023-02-13T11:40:31.965Z,38.98
2023-02-13T11:41:31.996Z,38.04
2023-02-13T11:43:32.025Z,38.48
2023-02-13T11:44:32.013Z,37.52
2023-02-13T11:46:32.073Z,37.90
2023-02-13T11:47:32.024Z,37.02
2023-02-13T11:48:32.001Z,38.43
2023-02-13T11:49:32.002Z,36.98
2023-02-13T11:50:32.026Z,38.14
2023-02-13T11:51:32.012Z,36.40
2023-02-13T11:52:31.997Z,41.17
2023-02-13T11:53:31.993Z,39.40
2023-02-13T11:54:31.996Z,40.35
2023-02-13T11:55:32.085Z,38.39
2023-02-13T11:56:32.040Z,36.53
2023-02-13T11:57:32.039Z,37.98
2023-02-13T11:58:32.163Z,36.75
2023-02-13T11:59:32.047Z,38.08
2023-02-13T12:00:32.098Z,38.19
2023-02-13T12:01:32.017Z,37.23
2023-02-13T12:02:32.080Z,38.85
2023-02-13T12:03:32.147Z,36.59
2023-02-13T12:04:32.059Z,37.66
2023-02-13T12:05:32.049Z,38.19
2023-02-13T12:06:34.083Z,36.69
2023-02-13T12:07:32.372Z,37.66
2023-02-13T12:08:32.080Z,39.56
2023-02-13T12:09:32.087Z,36.89
2023-02-13T12:10:32.057Z,35.21
2023-02-13T12:11:32.084Z,36.41
2023-02-13T12:12:32.092Z,37.91
2023-02-13T12:13:32.039Z,37.86
2023-02-13T12:14:32.058Z,39.53
2023-02-13T12:15:32.121Z,37.95
2023-02-13T12:16:32.080Z,36.93
2023-02-13T12:17:32.714Z,37.70
2023-02-13T12:18:32.103Z,37.02
2023-02-13T12:19:32.118Z,36.08
2023-02-13T12:20:32.150Z,39.18
2023-02-13T12:22:33.960Z,39.22
2023-02-13T12:23:32.056Z,37.40
2023-02-13T12:26:32.110Z,36.67
2023-02-13T12:27:32.119Z,37.20
2023-02-13T12:29:33.580Z,36.76
2023-02-13T12:30:32.185Z,36.90
2023-02-13T12:31:32.138Z,36.13
2023-02-13T12:32:32.136Z,35.82
2023-02-13T12:33:32.096Z,36.50
2023-02-13T12:34:32.149Z,37.02
2023-02-13T12:35:32.161Z,36.32
2023-02-13T12:36:32.112Z,37.03
2023-02-13T12:37:32.092Z,34.93
2023-02-13T12:38:32.148Z,36.17
2023-02-13T12:39:32.101Z,36.54
2023-02-13T12:40:32.184Z,37.99
2023-02-13T12:41:32.156Z,38.17
2023-02-13T12:42:32.140Z,36.26
2023-02-13T12:43:32.154Z,37.97
2023-02-13T12:44:32.643Z,35.82
2023-02-13T12:45:32.138Z,36.15
2023-02-13T12:46:32.147Z,36.23
2023-02-13T12:47:32.164Z,35.30
2023-02-13T12:48:32.196Z,36.47
2023-02-13T12:50:32.153Z,35.66
2023-02-13T12:51:32.139Z,37.31
2023-02-13T12:53:32.175Z,38.22
2023-02-13T12:55:32.184Z,37.40
2023-02-13T12:56:32.196Z,36.45
2023-02-13T12:57:32.155Z,39.52
2023-02-13T12:59:32.196Z,40.07
2023-02-13T13:00:32.209Z,36.32
2023-02-13T13:01:32.259Z,38.55
2023-02-13T13:03:32.214Z,36.72
2023-02-13T13:04:32.171Z,36.57
2023-02-13T13:05:32.161Z,34.98
2023-02-13T13:06:32.220Z,35.66
2023-02-13T13:07:32.186Z,36.09
2023-02-13T13:08:32.190Z,36.69
2023-02-13T13:09:32.241Z,37.62
2023-02-13T13:10:32.237Z,35.39
2023-02-13T13:13:32.244Z,34.98
2023-02-13T13:14:32.231Z,33.66
2023-02-13T13:15:32.236Z,35.45
2023-02-13T13:16:32.284Z,34.93
2023-02-13T13:17:32.237Z,37.12
2023-02-13T13:18:32.323Z,37.74
2023-02-13T13:19:32.260Z,36.87
2023-02-13T13:20:32.286Z,37.34
2023-02-13T13:21:33.021Z,36.17
2023-02-13T13:22:32.216Z,37.61
2023-02-13T13:23:32.277Z,35.64
2023-02-13T13:24:32.268Z,36.11
2023-02-13T13:25:32.268Z,34.68
2023-02-13T13:26:32.298Z,38.05
2023-02-13T13:27:32.216Z,35.88
2023-02-13T13:28:32.267Z,38.61
2023-02-13T13:29:32.272Z,35.82
2023-02-13T13:30:34.528Z,36.31
2023-02-13T13:31:32.472Z,36.47
2023-02-13T13:32:32.250Z,36.09
2023-02-13T13:33:32.301Z,36.80
2023-02-13T13:34:32.235Z,36.82
2023-02-13T13:35:32.283Z,37.74
2023-02-13T13:37:32.298Z,34.40
2023-02-13T13:38:32.259Z,37.54
2023-02-13T13:39:32.265Z,35.81
2023-02-13T13:40:32.299Z,36.00
2023-02-13T13:42:32.309Z,35.61
2023-02-13T13:43:32.300Z,35.42
2023-02-13T13:45:32.324Z,36.08
2023-02-13T13:46:32.344Z,35.77
2023-02-13T13:47:32.304Z,36.64
2023-02-13T13:48:32.276Z,35.26
2023-02-13T13:49:32.335Z,35.21
2023-02-13T13:50:32.310Z,35.74
2023-02-13T13:51:32.314Z,36.02
2023-02-13T13:52:32.315Z,34.19
2023-02-13T13:53:32.304Z,35.51
2023-02-13T13:54:32.319Z,36.43
2023-02-13T13:55:32.309Z,34.12
2023-02-13T13:56:32.331Z,34.73
2023-02-13T13:57:32.375Z,34.90
2023-02-13T13:58:33.398Z,36.62
2023-02-13T13:59:32.340Z,34.65
2023-02-13T14:00:32.357Z,34.67
2023-02-13T14:01:32.388Z,35.19
2023-02-13T14:02:32.435Z,34.88
2023-02-13T14:03:32.314Z,37.37
2023-02-13T14:04:32.358Z,36.49
2023-02-13T14:05:32.375Z,35.09
2023-02-13T14:07:32.400Z,35.21
2023-02-13T14:08:32.338Z,35.04
2023-02-13T14:09:32.331Z,35.83
2023-02-13T14:10:32.336Z,35.15
2023-02-13T14:11:32.362Z,35.22
2023-02-13T14:12:32.410Z,34.18
2023-02-13T14:13:32.339Z,36.26
2023-02-13T14:14:32.343Z,36.03
2023-02-13T14:15:32.394Z,35.32
2023-02-13T14:16:32.348Z,38.52
2023-02-13T14:17:32.380Z,37.48
2023-02-13T14:18:32.345Z,35.09
2023-02-13T14:19:32.363Z,36.60
2023-02-13T14:20:32.408Z,37.28
2023-02-13T14:21:32.397Z,36.90
2023-02-13T14:22:32.393Z,35.71
2023-02-13T14:24:32.381Z,36.72
2023-02-13T14:25:32.373Z,36.25
2023-02-13T14:26:32.393Z,36.59
2023-02-13T14:28:32.374Z,37.02
2023-02-13T14:29:32.377Z,37.03
2023-02-13T14:30:32.396Z,35.40
2023-02-13T14:31:32.485Z,35.57
2023-02-13T14:32:32.383Z,35.60
2023-02-13T14:33:32.415Z,36.90
2023-02-13T14:34:32.370Z,36.89
2023-02-13T14:35:33.791Z,35.88
2023-02-13T14:36:32.424Z,33.70
2023-02-13T14:37:32.389Z,36.17
2023-02-13T14:38:32.391Z,36.98
2023-02-13T14:39:32.427Z,36.46
2023-02-13T14:41:32.612Z,37.23
2023-02-13T14:42:32.446Z,34.45